createdAt,value
2023-04-15T00:00:30.857Z,7.47
2023-04-15T00:02:57.579Z,7.95
2023-04-15T00:05:24.260Z,8.48
2023-04-15T00:07:51.444Z,7.68
2023-04-15T00:10:18.031Z,8.95
2023-04-15T00:12:44.747Z,8.80
2023-04-15T00:15:12.601Z,10.20
2023-04-15T00:17:40.025Z,8.60
2023-04-15T00:20:07.298Z,7.95
2023-04-15T00:22:33.953Z,7.68
2023-04-15T00:25:00.741Z,8.43
2023-04-15T00:27:27.354Z,7.00
2023-04-15T00:29:54.089Z,8.05
2023-04-15T00:32:21.676Z,6.40
2023-04-15T00:34:48.334Z,5.80
2023-04-15T00:37:15.018Z,4.85
2023-04-15T00:39:41.953Z,5.10
2023-04-15T00:42:09.240Z,5.45
2023-04-15T00:44:35.842Z,5.70
2023-04-15T00:47:04.023Z,6.53
2023-04-15T00:49:30.950Z,7.18
2023-04-15T00:51:57.718Z,8.00
2023-04-15T00:54:24.367Z,8.13
2023-04-15T00:56:51.346Z,8.50
2023-04-15T00:59:17.992Z,9.73
2023-04-15T01:01:44.883Z,10.35
2023-04-15T01:04:12.412Z,10.10
2023-04-15T01:06:39.268Z,8.55
2023-04-15T01:09:06.408Z,9.18
2023-04-15T01:11:35.946Z,9.27
2023-04-15T01:14:03.181Z,12.02
2023-04-15T01:16:29.958Z,10.38
2023-04-15T01:18:57.170Z,10.25
2023-04-15T01:21:23.931Z,10.90
2023-04-15T01:23:51.713Z,10.50
2023-04-15T01:26:18.713Z,10.95
2023-04-15T01:28:45.336Z,9.60
2023-04-15T01:31:16.711Z,8.88
2023-04-15T01:33:43.682Z,9.50
2023-04-15T01:36:11.042Z,10.02
2023-04-15T01:38:38.293Z,10.00
2023-04-15T01:41:06.938Z,9.65
2023-04-15T01:43:34.605Z,10.93
2023-04-15T01:46:01.809Z,10.45
2023-04-15T01:48:28.496Z,9.48
2023-04-15T01:50:57.684Z,11.25
2023-04-15T01:53:25.410Z,8.95
2023-04-15T01:55:53.351Z,8.50
2023-04-15T01:58:20.142Z,7.68
2023-04-15T02:00:47.358Z,7.90
2023-04-15T02:03:14.138Z,7.05
2023-04-15T02:05:40.839Z,7.72
2023-04-15T02:08:07.649Z,7.70
2023-04-15T02:10:34.427Z,8.82
2023-04-15T02:13:01.334Z,8.38
2023-04-15T02:15:28.121Z,7.40
2023-04-15T02:17:55.524Z,8.32
2023-04-15T02:20:22.700Z,7.35
2023-04-15T02:22:50.036Z,6.90
2023-04-15T02:25:20.576Z,9.15
2023-04-15T02:27:47.411Z,8.07
2023-04-15T02:30:14.306Z,7.50
2023-04-15T02:32:44.006Z,8.90
2023-04-15T02:35:10.846Z,8.68
2023-04-15T02:37:43.539Z,8.85
2023-04-15T02:40:13.970Z,7.53
2023-04-15T02:42:41.286Z,7.65
2023-04-15T02:45:08.545Z,8.77
2023-04-15T02:47:36.242Z,8.52
2023-04-15T02:50:04.151Z,8.35
2023-04-15T02:52:31.260Z,9.05
2023-04-15T02:55:00.823Z,8.07
2023-04-15T02:57:29.230Z,9.32
2023-04-15T02:59:55.963Z,9.25
2023-04-15T03:02:22.774Z,8.85
2023-04-15T03:04:49.701Z,8.43
2023-04-15T03:07:17.960Z,9.60
2023-04-15T03:09:44.952Z,8.50
2023-04-15T03:12:11.652Z,8.88
2023-04-15T03:14:38.449Z,8.70
2023-04-15T03:17:08.153Z,8.70
2023-04-15T03:19:36.135Z,9.85
2023-04-15T03:22:02.997Z,9.07
2023-04-15T03:24:30.499Z,8.57
2023-04-15T03:26:57.960Z,8.82
2023-04-15T03:29:30.962Z,8.93
2023-04-15T03:31:57.578Z,9.77
2023-04-15T03:34:24.387Z,9.30
2023-04-15T03:36:51.404Z,9.13
2023-04-15T03:39:18.053Z,10.23
2023-04-15T03:41:44.755Z,7.20
2023-04-15T03:44:11.632Z,8.63
2023-04-15T03:46:38.394Z,8.77
2023-04-15T03:49:07.308Z,9.18
2023-04-15T03:51:34.072Z,11.35
2023-04-15T03:54:00.774Z,9.25
2023-04-15T03:56:27.440Z,9.70
2023-04-15T03:58:54.156Z,10.60
2023-04-15T04:01:20.899Z,10.13
2023-04-15T04:03:47.790Z,10.52
2023-04-15T04:06:15.766Z,9.40
2023-04-15T04:08:42.520Z,10.88
2023-04-15T04:11:09.211Z,10.00
2023-04-15T04:13:36.457Z,11.63
2023-04-15T04:16:05.240Z,10.93
2023-04-15T04:18:32.846Z,10.27
2023-04-15T04:20:59.490Z,9.68
2023-04-15T04:23:26.572Z,10.13
2023-04-15T04:25:53.672Z,9.77
2023-04-15T04:28:20.319Z,8.32
2023-04-15T04:30:46.929Z,9.57
2023-04-15T04:33:21.713Z,9.48
2023-04-15T04:35:48.335Z,10.15
2023-04-15T04:38:15.060Z,9.60
2023-04-15T04:40:41.761Z,8.82
2023-04-15T04:43:09.726Z,10.45
2023-04-15T04:45:36.398Z,10.02
2023-04-15T04:48:07.239Z,11.02
2023-04-15T04:50:34.816Z,9.68
2023-04-15T04:53:01.987Z,9.90
2023-04-15T04:55:28.880Z,11.15
2023-04-15T04:57:55.758Z,10.88
2023-04-15T05:00:22.933Z,10.60
2023-04-15T05:02:53.543Z,10.35
2023-04-15T05:05:20.311Z,10.45
2023-04-15T05:07:47.409Z,10.50
2023-04-15T05:10:15.413Z,10.25
2023-04-15T05:12:41.994Z,8.77
2023-04-15T05:15:09.254Z,8.32
2023-04-15T05:17:36.077Z,10.15
2023-04-15T05:20:03.922Z,9.10
2023-04-15T05:22:30.721Z,9.38
2023-04-15T05:24:57.374Z,10.73
2023-04-15T05:27:24.760Z,12.80
2023-04-15T05:29:51.734Z,12.43
2023-04-15T05:32:18.449Z,12.00
2023-04-15T05:34:45.744Z,16.50
2023-04-15T05:37:12.882Z,12.38
2023-04-15T05:39:39.536Z,11.93
2023-04-15T05:42:06.354Z,9.60
2023-04-15T05:44:33.130Z,11.35
2023-04-15T05:46:59.912Z,9.93
2023-04-15T05:49:26.577Z,7.97
2023-04-15T05:51:53.192Z,9.93
2023-04-15T05:54:20.388Z,9.38
2023-04-15T05:56:47.639Z,12.45
2023-04-15T05:59:14.255Z,9.52
2023-04-15T06:01:40.854Z,12.40
2023-04-15T06:04:07.592Z,9.00
2023-04-15T06:06:34.817Z,8.32
2023-04-15T06:09:01.742Z,11.93
2023-04-15T06:11:31.406Z,11.63
2023-04-15T06:13:58.205Z,10.13
2023-04-15T06:16:24.923Z,11.30
2023-04-15T06:18:51.622Z,9.77
2023-04-15T06:21:18.893Z,9.38
2023-04-15T06:23:45.723Z,8.70
2023-04-15T06:26:12.368Z,8.27
2023-04-15T06:28:38.955Z,8.00
2023-04-15T06:31:05.783Z,7.60
2023-04-15T06:33:32.468Z,8.23
2023-04-15T06:35:59.151Z,8.60
2023-04-15T06:38:25.962Z,10.38
2023-04-15T06:40:58.604Z,7.55
2023-04-15T06:43:25.948Z,10.27
2023-04-15T06:45:52.674Z,8.40
2023-04-15T06:48:19.381Z,7.45
2023-04-15T06:50:46.113Z,8.40
2023-04-15T06:53:12.826Z,8.80
2023-04-15T06:55:40.373Z,7.30
2023-04-15T06:58:08.059Z,6.40
2023-04-15T07:00:34.681Z,7.22
2023-04-15T07:03:03.869Z,7.38
2023-04-15T07:05:31.168Z,7.38
2023-04-15T07:07:57.976Z,6.72
2023-04-15T07:10:25.755Z,7.38
2023-04-15T07:12:52.685Z,7.53
2023-04-15T07:15:19.730Z,5.57
2023-04-15T07:17:46.571Z,6.85
2023-04-15T07:20:16.675Z,6.35
2023-04-15T07:22:43.721Z,7.00
2023-04-15T07:25:11.477Z,6.50
2023-04-15T07:27:38.196Z,6.43
2023-04-15T07:30:05.370Z,6.45
2023-04-15T07:32:32.740Z,5.90
2023-04-15T07:34:59.408Z,5.50
2023-04-15T07:37:30.069Z,6.82
2023-04-15T07:39:56.862Z,7.43
2023-04-15T07:42:23.534Z,6.88
2023-04-15T07:44:50.292Z,5.90
2023-04-15T07:47:16.961Z,5.68
2023-04-15T07:49:44.535Z,5.68
2023-04-15T07:52:11.590Z,5.35
2023-04-15T07:54:38.259Z,5.72
2023-04-15T07:57:05.077Z,5.95
2023-04-15T07:59:33.560Z,6.10
2023-04-15T08:02:00.413Z,6.40
2023-04-15T08:04:27.679Z,6.00
2023-04-15T08:06:54.857Z,6.22
2023-04-15T08:09:21.868Z,7.03
2023-04-15T08:11:51.776Z,7.03
2023-04-15T08:14:18.549Z,6.82
2023-04-15T08:16:45.281Z,5.75
2023-04-15T08:19:12.100Z,5.75
2023-04-15T08:21:38.929Z,5.95
2023-04-15T08:24:07.080Z,4.90
2023-04-15T08:26:33.766Z,5.43
2023-04-15T08:29:00.761Z,7.60
2023-04-15T08:31:30.029Z,5.25
2023-04-15T08:33:58.032Z,5.78
2023-04-15T08:36:24.677Z,5.18
2023-04-15T08:38:51.356Z,6.90
2023-04-15T08:41:23.631Z,7.00
2023-04-15T08:43:58.040Z,7.55
2023-04-15T08:46:24.922Z,6.87
2023-04-15T08:48:52.295Z,8.55
2023-04-15T08:51:19.168Z,5.47
2023-04-15T08:53:47.547Z,6.13
2023-04-15T08:56:15.739Z,5.43
2023-04-15T08:58:44.355Z,5.47
2023-04-15T09:01:13.303Z,6.63
2023-04-15T09:03:40.885Z,6.68
2023-04-15T09:06:07.725Z,7.05
2023-04-15T09:08:37.161Z,6.47
2023-04-15T09:11:04.131Z,6.78
2023-04-15T09:13:31.397Z,5.80
2023-04-15T09:16:00.764Z,6.10
2023-04-15T09:18:29.771Z,6.22
2023-04-15T09:20:57.074Z,6.70
2023-04-15T09:23:23.754Z,7.97
2023-04-15T09:25:50.713Z,7.03
2023-04-15T09:28:26.073Z,8.10
2023-04-15T09:33:22.430Z,6.57
2023-04-15T09:36:01.969Z,6.57
2023-04-15T09:38:29.699Z,5.47
2023-04-15T09:40:56.360Z,5.85
2023-04-15T09:43:23.949Z,5.90
2023-04-15T09:45:54.420Z,6.53
2023-04-15T09:48:29.074Z,5.90
2023-04-15T09:50:58.757Z,7.40
2023-04-15T09:53:26.518Z,6.30
2023-04-15T09:55:58.233Z,6.82
2023-04-15T09:58:26.769Z,6.88
2023-04-15T10:00:54.743Z,5.70
2023-04-15T10:03:23.753Z,6.22
2023-04-15T10:05:52.796Z,5.43
2023-04-15T10:08:21.768Z,4.50
2023-04-15T10:10:49.232Z,6.93
2023-04-15T10:13:26.723Z,5.25
2023-04-15T10:16:05.791Z,6.78
2023-04-15T10:18:35.401Z,5.82
2023-04-15T10:21:02.445Z,5.03
2023-04-15T10:23:29.282Z,5.43
2023-04-15T10:25:56.373Z,7.07
2023-04-15T10:28:23.226Z,6.07
2023-04-15T10:30:50.282Z,5.18
2023-04-15T10:33:23.708Z,6.82
2023-04-15T10:35:51.887Z,6.70
2023-04-15T10:38:38.854Z,5.22
2023-04-15T10:41:28.202Z,6.65
2023-04-15T10:44:05.033Z,7.65
2023-04-15T10:46:39.453Z,5.78
2023-04-15T10:49:13.271Z,5.25
2023-04-15T10:52:01.489Z,4.97
2023-04-15T10:54:28.054Z,6.10
2023-04-15T10:57:01.665Z,7.30
2023-04-15T10:59:35.662Z,5.65
2023-04-15T11:02:04.427Z,5.85
2023-04-15T11:05:00.065Z,5.38
2023-04-15T11:07:50.531Z,5.82
2023-04-15T11:10:26.361Z,7.20
2023-04-15T11:13:17.295Z,6.97
2023-04-15T11:15:47.963Z,5.70
2023-04-15T11:18:23.203Z,6.65
2023-04-15T11:23:38.337Z,7.55
2023-04-15T11:26:09.832Z,5.28
2023-04-15T11:28:38.741Z,6.50
2023-04-15T11:31:13.892Z,6.90
2023-04-15T11:33:59.632Z,6.00
2023-04-15T11:38:54.625Z,5.85
2023-04-15T11:41:23.275Z,5.68
2023-04-15T11:43:50.958Z,7.47
2023-04-15T11:46:18.082Z,5.22
2023-04-15T11:48:47.158Z,5.60
2023-04-15T11:51:14.315Z,6.93
2023-04-15T11:53:52.963Z,7.20
2023-04-15T11:56:24.144Z,5.20
2023-04-15T11:59:02.425Z,5.18
2023-04-15T12:01:37.153Z,7.00
2023-04-15T12:04:12.113Z,7.10
2023-04-15T12:06:39.250Z,6.40
2023-04-15T12:09:16.917Z,7.32
2023-04-15T12:11:47.613Z,5.20
2023-04-15T12:14:30.149Z,6.30
2023-04-15T12:17:08.086Z,6.70
2023-04-15T12:19:40.241Z,4.78
2023-04-15T12:22:10.538Z,6.43
2023-04-15T12:24:38.150Z,6.03
2023-04-15T12:27:07.139Z,6.43
2023-04-15T12:29:35.236Z,6.60
2023-04-15T12:32:09.710Z,6.93
2023-04-15T12:34:58.528Z,7.47
2023-04-15T12:37:26.218Z,6.70
2023-04-15T12:39:54.244Z,6.50
2023-04-15T12:42:21.109Z,6.75
2023-04-15T12:44:48.072Z,7.07
2023-04-15T12:47:14.731Z,7.30
2023-04-15T12:49:41.681Z,5.45
2023-04-15T12:52:11.621Z,6.65
2023-04-15T12:54:40.163Z,6.97
2023-04-15T12:57:07.403Z,7.47
2023-04-15T12:59:35.188Z,7.47
2023-04-15T13:02:08.290Z,5.03
2023-04-15T13:04:35.139Z,6.50
2023-04-15T13:07:02.308Z,6.32
2023-04-15T13:09:28.950Z,6.50
2023-04-15T13:11:56.492Z,7.30
2023-04-15T13:14:27.236Z,6.97
2023-04-15T13:16:54.138Z,6.63
2023-04-15T13:19:20.780Z,7.35
2023-04-15T13:21:47.863Z,6.53
2023-04-15T13:24:14.446Z,5.50
2023-04-15T13:26:41.231Z,5.97
2023-04-15T13:29:08.118Z,6.50
2023-04-15T13:31:35.202Z,6.28
2023-04-15T13:34:01.915Z,6.05
2023-04-15T13:36:28.689Z,5.35
2023-04-15T13:38:55.682Z,6.20
2023-04-15T13:41:22.586Z,6.05
2023-04-15T13:43:49.272Z,5.65
2023-04-15T13:46:16.163Z,6.05
2023-04-15T13:48:46.266Z,6.85
2023-04-15T13:51:13.211Z,6.90
2023-04-15T13:53:40.005Z,7.13
2023-04-15T13:56:08.186Z,6.60
2023-04-15T13:58:34.881Z,8.07
2023-04-15T14:01:04.714Z,6.70
2023-04-15T14:03:32.814Z,6.88
2023-04-15T14:05:59.739Z,6.28
2023-04-15T14:08:30.866Z,4.57
2023-04-15T14:10:57.958Z,6.38
2023-04-15T14:13:24.816Z,5.55
2023-04-15T14:15:51.528Z,6.75
2023-04-15T14:18:18.331Z,6.13
2023-04-15T14:20:45.390Z,6.88
2023-04-15T14:23:12.356Z,5.20
2023-04-15T14:25:41.843Z,5.45
2023-04-15T14:28:08.653Z,6.88
2023-04-15T14:30:35.880Z,6.82
2023-04-15T14:33:02.728Z,5.88
2023-04-15T14:35:42.165Z,6.40
2023-04-15T14:38:11.263Z,7.55
2023-04-15T14:40:38.472Z,4.70
2023-04-15T14:43:05.478Z,8.27
2023-04-15T14:45:32.548Z,7.38
2023-04-15T14:48:00.043Z,5.95
2023-04-15T14:50:26.891Z,7.20
2023-04-15T14:52:53.521Z,6.28
2023-04-15T14:55:20.621Z,6.70
2023-04-15T14:57:47.522Z,7.25
2023-04-15T15:00:16.039Z,7.10
2023-04-15T15:02:43.291Z,7.53
2023-04-15T15:05:10.921Z,8.00
2023-04-15T15:07:39.555Z,6.65
2023-04-15T15:10:07.311Z,6.45
2023-04-15T15:12:34.309Z,8.85
2023-04-15T15:15:03.041Z,6.93
2023-04-15T15:17:31.883Z,6.88
2023-04-15T15:19:58.555Z,6.80
2023-04-15T15:22:26.379Z,6.85
2023-04-15T15:24:53.671Z,7.35
2023-04-15T15:27:20.504Z,7.20
2023-04-15T15:29:47.222Z,7.78
2023-04-15T15:32:14.321Z,7.47
2023-04-15T15:34:41.137Z,8.05
2023-04-15T15:37:07.800Z,8.77
2023-04-15T15:39:35.402Z,7.43
2023-04-15T15:42:02.305Z,8.43
2023-04-15T15:44:29.098Z,8.45
2023-04-15T15:46:55.788Z,9.05
2023-04-15T15:49:22.720Z,9.68
2023-04-15T15:51:49.981Z,8.48
2023-04-15T15:54:20.537Z,8.20
2023-04-15T15:56:47.164Z,9.18
2023-04-15T15:59:14.821Z,8.90
2023-04-15T16:01:41.710Z,10.68
2023-04-15T16:04:08.598Z,9.85
2023-04-15T16:06:35.590Z,10.00
2023-04-15T16:09:02.435Z,10.20
2023-04-15T16:11:29.833Z,10.68
2023-04-15T16:13:56.652Z,9.75
2023-04-15T16:16:24.335Z,9.27
2023-04-15T16:18:51.169Z,10.27
2023-04-15T16:21:17.845Z,9.88
2023-04-15T16:23:44.743Z,8.80
2023-04-15T16:26:12.034Z,9.95
2023-04-15T16:28:38.720Z,8.90
2023-04-15T16:31:05.529Z,8.65
2023-04-15T16:33:32.630Z,9.32
2023-04-15T16:35:59.255Z,9.55
2023-04-15T16:38:26.626Z,9.73
2023-04-15T16:40:53.228Z,9.77
2023-04-15T16:43:20.240Z,9.35
2023-04-15T16:45:51.559Z,10.32
2023-04-15T16:48:21.705Z,10.60
2023-04-15T16:50:49.266Z,9.52
2023-04-15T16:53:16.164Z,11.63
2023-04-15T16:55:42.760Z,11.43
2023-04-15T16:58:09.572Z,11.18
2023-04-15T17:00:37.080Z,10.60
2023-04-15T17:03:06.360Z,11.43
2023-04-15T17:05:33.588Z,10.57
2023-04-15T17:08:00.534Z,10.95
2023-04-15T17:10:27.892Z,10.30
2023-04-15T17:12:57.208Z,12.82
2023-04-15T17:15:24.163Z,9.82
2023-04-15T17:17:51.231Z,11.85
2023-04-15T17:20:18.238Z,11.07
2023-04-15T17:22:45.303Z,10.90
2023-04-15T17:25:13.754Z,11.95
2023-04-15T17:27:40.984Z,11.88
2023-04-15T17:30:09.716Z,12.32
2023-04-15T17:32:36.798Z,11.05
2023-04-15T17:35:06.409Z,12.38
2023-04-15T17:37:36.224Z,10.93
2023-04-15T17:40:08.008Z,11.90
2023-04-15T17:42:35.411Z,12.05
2023-04-15T17:45:02.372Z,14.50
2023-04-15T17:47:29.018Z,12.35
2023-04-15T17:49:56.166Z,13.27
2023-04-15T17:52:22.924Z,13.38
2023-04-15T17:54:49.776Z,12.25
2023-04-15T17:57:16.726Z,11.48
2023-04-15T17:59:45.090Z,13.00
2023-04-15T18:02:15.176Z,11.52
2023-04-15T18:04:42.003Z,15.30
2023-04-15T18:07:09.613Z,11.90
2023-04-15T18:09:38.559Z,12.85
2023-04-15T18:12:07.599Z,13.70
2023-04-15T18:14:35.262Z,13.18
2023-04-15T18:17:05.189Z,12.55
2023-04-15T18:19:32.235Z,13.55
2023-04-15T18:22:00.428Z,12.85
2023-04-15T18:24:27.620Z,14.93
2023-04-15T18:26:54.297Z,14.07
2023-04-15T18:29:25.629Z,14.45
2023-04-15T18:31:52.835Z,15.65
2023-04-15T18:34:19.691Z,14.77
2023-04-15T18:36:46.384Z,12.45
2023-04-15T18:39:13.064Z,14.52
2023-04-15T18:41:40.824Z,14.27
2023-04-15T18:44:07.505Z,13.25
2023-04-15T18:46:34.319Z,14.15
2023-04-15T18:49:02.780Z,13.60
2023-04-15T18:51:31.253Z,13.82
2023-04-15T18:53:59.017Z,14.43
2023-04-15T18:56:25.933Z,15.55
2023-04-15T18:59:27.845Z,13.35
2023-04-15T19:01:39.422Z,13.30
2023-04-15T19:04:10.238Z,13.27
2023-04-15T19:06:37.032Z,13.60
2023-04-15T19:09:04.002Z,12.80
2023-04-15T19:11:31.393Z,15.80
2023-04-15T19:13:58.036Z,13.98
2023-04-15T19:16:24.861Z,13.82
2023-04-15T19:18:52.035Z,13.02
2023-04-15T19:21:18.718Z,14.30
2023-04-15T19:23:45.516Z,12.75
2023-04-15T19:26:12.281Z,13.23
2023-04-15T19:28:38.918Z,13.27
2023-04-15T19:31:05.597Z,11.73
2023-04-15T19:33:32.301Z,13.05
2023-04-15T19:36:04.167Z,12.55
2023-04-15T19:38:31.613Z,14.65
2023-04-15T19:40:58.870Z,14.35
2023-04-15T19:43:25.505Z,15.32
2023-04-15T19:45:54.791Z,14.80
2023-04-15T19:48:22.886Z,15.65
2023-04-15T19:50:49.637Z,16.38
2023-04-15T19:53:16.321Z,16.08
2023-04-15T19:55:43.482Z,15.23
2023-04-15T19:58:10.124Z,15.02
2023-04-15T20:00:37.122Z,15.13
2023-04-15T20:03:04.364Z,18.23
2023-04-15T20:05:31.332Z,15.20
2023-04-15T20:07:59.846Z,14.13
2023-04-15T20:10:27.285Z,13.73
2023-04-15T20:12:54.038Z,15.80
2023-04-15T20:15:22.766Z,16.35
2023-04-15T20:17:50.255Z,16.52
2023-04-15T20:20:16.977Z,17.33
2023-04-15T20:22:43.618Z,18.10
2023-04-15T20:25:10.561Z,15.88
2023-04-15T20:27:37.225Z,16.85
2023-04-15T20:30:05.132Z,16.58
2023-04-15T20:32:35.917Z,18.13
2023-04-15T20:35:04.422Z,15.30
2023-04-15T20:37:33.284Z,18.35
2023-04-15T20:40:01.000Z,15.93
2023-04-15T20:42:27.725Z,18.98
2023-04-15T20:44:54.528Z,18.13
2023-04-15T20:47:21.319Z,18.30
2023-04-15T20:49:48.196Z,21.73
2023-04-15T20:52:14.961Z,23.88
2023-04-15T20:54:41.663Z,17.92
2023-04-15T20:57:08.327Z,19.90
2023-04-15T20:59:35.090Z,18.35
2023-04-15T21:02:02.297Z,17.70
2023-04-15T21:04:29.192Z,16.95
2023-04-15T21:06:55.824Z,18.33
2023-04-15T21:09:22.517Z,16.08
2023-04-15T21:14:19.526Z,18.70
2023-04-15T21:16:46.357Z,18.65
2023-04-15T21:19:13.114Z,20.25
2023-04-15T21:21:39.875Z,19.27
2023-04-15T21:24:07.952Z,19.35
2023-04-15T21:26:36.097Z,18.85
2023-04-15T21:29:03.323Z,20.52
2023-04-15T21:31:30.641Z,18.38
2023-04-15T21:33:57.412Z,21.38
2023-04-15T21:36:24.061Z,20.33
2023-04-15T21:38:50.743Z,21.55
2023-04-15T21:41:17.418Z,21.90
2023-04-15T21:43:44.181Z,20.77
2023-04-15T21:46:22.539Z,23.83
2023-04-15T21:48:53.518Z,24.63
2023-04-15T21:51:20.308Z,22.52
2023-04-15T21:53:47.014Z,21.30
2023-04-15T21:56:13.730Z,22.30
2023-04-15T21:58:40.689Z,21.65
2023-04-15T22:01:07.795Z,22.92
2023-04-15T22:03:35.284Z,24.00
2023-04-15T22:06:03.192Z,22.23
2023-04-15T22:08:36.079Z,22.80
2023-04-15T22:11:26.603Z,24.25
2023-04-15T22:13:57.327Z,21.77
2023-04-15T22:16:27.084Z,24.75
2023-04-15T22:18:54.484Z,23.52
2023-04-15T22:21:21.286Z,26.30
2023-04-15T22:23:49.473Z,24.48
2023-04-15T22:26:16.672Z,26.45
2023-04-15T22:28:43.321Z,25.40
2023-04-15T22:31:10.275Z,25.42
2023-04-15T22:33:36.944Z,24.25
2023-04-15T22:36:03.899Z,27.80
2023-04-15T22:38:30.674Z,25.60
2023-04-15T22:40:57.438Z,26.00
2023-04-15T22:43:24.155Z,24.83
2023-04-15T22:45:51.505Z,29.23
2023-04-15T22:48:18.814Z,29.88
2023-04-15T22:50:45.916Z,26.40
2023-04-15T22:53:13.020Z,26.85
2023-04-15T22:55:39.703Z,26.35
2023-04-15T22:58:06.438Z,25.80
2023-04-15T23:00:33.125Z,27.25
2023-04-15T23:03:00.372Z,29.33
2023-04-15T23:05:27.692Z,26.40
2023-04-15T23:07:54.617Z,26.75
2023-04-15T23:10:21.356Z,28.10
2023-04-15T23:12:48.089Z,32.50
2023-04-15T23:15:14.871Z,31.00
2023-04-15T23:17:43.009Z,32.58
2023-04-15T23:20:10.335Z,34.92
2023-04-15T23:22:37.863Z,30.83
2023-04-15T23:25:06.012Z,31.80
2023-04-15T23:27:32.755Z,34.00
2023-04-15T23:29:59.340Z,32.88
2023-04-15T23:32:26.744Z,34.67
2023-04-15T23:34:53.611Z,34.75
2023-04-15T23:37:20.204Z,34.35
2023-04-15T23:39:56.060Z,32.45
2023-04-15T23:42:24.225Z,33.10
2023-04-15T23:44:51.194Z,36.80
2023-04-15T23:47:17.966Z,35.35
2023-04-15T23:49:44.888Z,36.80
2023-04-15T23:52:11.695Z,35.72
2023-04-15T23:54:38.396Z,37.72
2023-04-15T23:57:05.002Z,36.45
2023-04-15T23:59:31.822Z,36.92
